createdAt,value
2018-07-24T00:06:31.919Z,3.39
2018-07-24T00:16:29.257Z,3.39
2018-07-24T00:26:28.197Z,3.39
2018-07-24T00:36:24.370Z,3.39
2018-07-24T00:46:19.816Z,3.39
2018-07-24T00:56:18.779Z,3.39
2018-07-24T01:06:15.249Z,3.39
2018-07-24T01:16:09.947Z,3.38
2018-07-24T01:26:06.647Z,3.38
2018-07-24T01:36:04.660Z,3.38
2018-07-24T01:45:59.881Z,3.38
2018-07-24T01:55:56.322Z,3.38
2018-07-24T02:05:52.606Z,3.38
2018-07-24T02:15:47.752Z,3.37
2018-07-24T02:25:42.968Z,3.37
2018-07-24T02:35:37.176Z,3.37
2018-07-24T02:45:34.182Z,3.37
2018-07-24T02:55:31.207Z,3.37
2018-07-24T03:05:26.011Z,3.37
2018-07-24T03:15:24.612Z,3.37
2018-07-24T03:25:21.583Z,3.36
2018-07-24T03:35:19.149Z,3.36
2018-07-24T03:45:17.528Z,3.36
2018-07-24T03:55:13.543Z,3.36
2018-07-24T04:05:09.787Z,3.37
2018-07-24T04:15:06.134Z,3.37
2018-07-24T04:25:04.157Z,3.37
2018-07-24T04:35:01.740Z,3.37
2018-07-24T04:45:00.026Z,3.37
2018-07-24T04:54:58.825Z,3.38
2018-07-24T05:04:54.271Z,3.38
2018-07-24T05:14:46.161Z,3.39
2018-07-24T05:24:42.391Z,3.39
2018-07-24T05:34:40.444Z,3.39
2018-07-24T05:44:38.085Z,3.40
2018-07-24T05:54:36.485Z,3.40
2018-07-24T06:04:32.121Z,3.41
2018-07-24T06:14:30.823Z,3.41
2018-07-24T06:24:25.471Z,3.42
2018-07-24T06:34:20.692Z,3.43
2018-07-24T06:44:10.337Z,3.43
2018-07-24T06:53:52.416Z,3.44
2018-07-24T07:03:37.237Z,3.44
2018-07-24T07:13:23.727Z,3.44
2018-07-24T07:23:16.652Z,3.44
2018-07-24T07:33:09.734Z,3.43
2018-07-24T07:42:59.058Z,3.43
2018-07-24T07:52:56.323Z,3.42
2018-07-24T08:02:50.717Z,3.42
2018-07-24T08:12:49.555Z,3.42
2018-07-24T08:22:48.539Z,3.42
2018-07-24T08:32:46.085Z,3.42
2018-07-24T08:42:42.674Z,3.42
2018-07-24T08:52:41.483Z,3.42
2018-07-24T09:02:38.224Z,3.42
2018-07-24T09:12:34.013Z,3.42
2018-07-24T09:22:31.650Z,3.42
2018-07-24T09:32:30.187Z,3.41
2018-07-24T09:42:26.217Z,3.41
2018-07-24T09:52:21.656Z,3.41
2018-07-24T10:02:20.387Z,3.43
2018-07-24T10:12:18.132Z,3.42
2018-07-24T10:22:14.308Z,3.42
2018-07-24T10:32:10.185Z,3.42
2018-07-24T10:42:07.994Z,3.42
2018-07-24T10:52:09.347Z,3.42
2018-07-24T11:02:04.323Z,3.42
2018-07-24T11:11:58.242Z,3.41
2018-07-24T11:21:50.467Z,3.41
2018-07-24T11:31:46.099Z,3.41
2018-07-24T11:41:42.581Z,3.41
2018-07-24T11:51:40.218Z,3.41
2018-07-24T12:01:34.243Z,3.41
2018-07-24T12:11:33.238Z,3.43
2018-07-24T12:21:31.843Z,3.42
2018-07-24T12:31:15.284Z,3.42
2018-07-24T12:41:14.701Z,3.42
2018-07-24T12:50:54.478Z,3.42
2018-07-24T13:00:37.724Z,3.42
2018-07-24T13:10:12.552Z,3.42
2018-07-24T13:19:38.607Z,3.42
2018-07-24T13:29:32.731Z,3.42
2018-07-24T13:39:25.153Z,3.42
2018-07-24T13:49:18.381Z,3.41
2018-07-24T13:59:16.957Z,3.41
2018-07-24T14:09:22.655Z,3.42
2018-07-24T14:19:07.468Z,3.42
2018-07-24T14:28:49.804Z,3.42
2018-07-24T14:38:30.225Z,3.42
2018-07-24T14:48:21.089Z,3.42
2018-07-24T14:57:58.406Z,3.42
2018-07-24T15:07:50.429Z,3.42
2018-07-24T15:17:33.499Z,3.41
2018-07-24T15:27:31.890Z,3.42
2018-07-24T15:37:07.939Z,3.41
2018-07-24T15:47:00.464Z,3.41
2018-07-24T15:56:38.318Z,3.41
2018-07-24T16:06:25.818Z,3.41
2018-07-24T16:16:24.291Z,3.45
2018-07-24T16:26:19.855Z,3.43
2018-07-24T16:36:15.871Z,3.42
2018-07-24T16:46:11.832Z,3.42
2018-07-24T16:56:02.065Z,3.42
2018-07-24T17:05:56.775Z,3.42
2018-07-24T17:15:50.026Z,3.42
2018-07-24T17:25:47.267Z,3.43
2018-07-24T17:35:45.543Z,3.43
2018-07-24T17:45:39.124Z,3.43
2018-07-24T17:55:32.286Z,3.43
2018-07-24T18:05:28.660Z,3.42
2018-07-24T18:15:23.834Z,3.42
2018-07-24T18:25:17.011Z,3.42
2018-07-24T18:35:02.790Z,3.42
2018-07-24T18:44:50.456Z,3.41
2018-07-24T18:54:40.467Z,3.41
2018-07-24T19:04:35.826Z,3.40
2018-07-24T19:14:29.322Z,3.40
2018-07-24T19:24:23.960Z,3.40
2018-07-24T19:34:20.255Z,3.40
2018-07-24T19:44:13.681Z,3.40
2018-07-24T19:54:07.187Z,3.40
2018-07-24T20:04:04.095Z,3.40
2018-07-24T20:13:58.193Z,3.39
2018-07-24T20:23:54.014Z,3.39
2018-07-24T20:33:48.517Z,3.39
2018-07-24T20:43:43.064Z,3.39
2018-07-24T20:53:40.263Z,3.39
2018-07-24T21:03:33.199Z,3.39
2018-07-24T21:13:30.530Z,3.39
2018-07-24T21:23:27.247Z,3.39
2018-07-24T21:33:21.635Z,3.39
2018-07-24T21:43:20.255Z,3.39
2018-07-24T21:53:16.034Z,3.39
2018-07-24T22:03:11.174Z,3.39
2018-07-24T22:13:05.713Z,3.39
2018-07-24T22:23:02.074Z,3.38
2018-07-24T22:32:59.797Z,3.38
2018-07-24T22:42:57.406Z,3.38
2018-07-24T22:52:53.176Z,3.38
2018-07-24T23:02:46.710Z,3.38
2018-07-24T23:12:43.069Z,3.37
2018-07-24T23:22:37.751Z,3.37
2018-07-24T23:32:28.515Z,3.37
2018-07-24T23:42:25.910Z,3.37
2018-07-24T23:52:22.078Z,3.37
